createdAt,value
2018-07-06T00:00:44.075Z,2.33
2018-07-06T00:03:30.712Z,2.87
2018-07-06T00:06:17.417Z,3.00
2018-07-06T00:09:05.593Z,2.80
2018-07-06T00:11:52.167Z,2.53
2018-07-06T00:14:38.795Z,2.60
2018-07-06T00:17:25.286Z,2.37
2018-07-06T00:20:11.834Z,2.47
2018-07-06T00:22:58.406Z,2.47
2018-07-06T00:25:38.702Z,3.20
2018-07-06T00:28:25.107Z,3.07
2018-07-06T00:31:11.669Z,3.30
2018-07-06T00:33:58.183Z,2.20
2018-07-06T00:36:44.894Z,3.17
2018-07-06T00:39:31.354Z,2.70
2018-07-06T00:42:18.745Z,4.13
2018-07-06T00:45:05.369Z,3.00
2018-07-06T00:47:52.072Z,3.13
2018-07-06T00:50:38.534Z,3.60
2018-07-06T00:53:25.081Z,4.07
2018-07-06T00:56:11.699Z,3.30
2018-07-06T00:58:58.186Z,3.67
2018-07-06T01:01:44.860Z,3.30
2018-07-06T01:04:31.446Z,3.80
2018-07-06T01:07:11.999Z,3.00
2018-07-06T01:09:58.421Z,3.70
2018-07-06T01:12:50.283Z,4.40
2018-07-06T01:15:37.580Z,3.33
2018-07-06T01:18:23.979Z,3.33
2018-07-06T01:21:10.643Z,3.10
2018-07-06T01:23:57.053Z,2.90
2018-07-06T01:26:43.612Z,3.03
2018-07-06T01:29:30.257Z,3.00
2018-07-06T01:32:16.768Z,3.50
2018-07-06T01:35:03.349Z,3.10
2018-07-06T01:37:50.026Z,3.53
2018-07-06T01:40:36.730Z,3.53
2018-07-06T01:43:23.156Z,2.97
2018-07-06T01:46:09.912Z,3.40
2018-07-06T01:48:56.434Z,3.47
2018-07-06T01:51:43.216Z,3.20
2018-07-06T01:54:29.945Z,3.37
2018-07-06T01:57:16.527Z,3.90
2018-07-06T02:00:03.539Z,3.53
2018-07-06T02:02:50.092Z,3.63
2018-07-06T02:05:36.613Z,3.97
2018-07-06T02:08:23.138Z,3.47
2018-07-06T02:11:09.738Z,3.40
2018-07-06T02:13:56.343Z,3.50
2018-07-06T02:16:43.117Z,3.10
2018-07-06T02:19:29.694Z,3.63
2018-07-06T02:22:16.458Z,3.70
2018-07-06T02:25:02.935Z,3.17
2018-07-06T02:27:49.503Z,3.40
2018-07-06T02:30:35.927Z,3.10
2018-07-06T02:33:22.508Z,3.57
2018-07-06T02:36:02.937Z,3.70
2018-07-06T02:38:49.364Z,2.80
2018-07-06T02:41:35.842Z,3.07
2018-07-06T02:44:22.393Z,3.27
2018-07-06T02:47:08.921Z,3.13
2018-07-06T02:49:55.496Z,3.20
2018-07-06T02:52:42.032Z,3.30
2018-07-06T02:55:28.664Z,3.47
2018-07-06T02:58:15.208Z,4.00
2018-07-06T03:01:01.777Z,3.10
2018-07-06T03:03:48.449Z,3.17
2018-07-06T03:06:35.020Z,3.03
2018-07-06T03:09:21.613Z,2.97
2018-07-06T03:12:08.220Z,3.30
2018-07-06T03:14:54.636Z,3.33
2018-07-06T03:17:41.172Z,2.70
2018-07-06T03:20:27.690Z,2.87
2018-07-06T03:23:14.241Z,2.67
2018-07-06T03:26:00.955Z,3.20
2018-07-06T03:28:47.818Z,3.40
2018-07-06T03:31:33.905Z,3.03
2018-07-06T03:34:20.420Z,3.43
2018-07-06T03:37:07.340Z,2.60
2018-07-06T03:39:54.447Z,2.60
2018-07-06T03:42:40.984Z,2.73
2018-07-06T03:45:27.558Z,3.17
2018-07-06T03:48:13.960Z,3.27
2018-07-06T03:51:00.507Z,3.03
2018-07-06T03:53:47.622Z,3.00
2018-07-06T03:56:34.299Z,3.10
2018-07-06T03:59:20.689Z,3.03
2018-07-06T04:02:07.199Z,3.37
2018-07-06T04:04:53.695Z,3.53
2018-07-06T04:07:40.182Z,2.90
2018-07-06T04:10:26.594Z,2.87
2018-07-06T04:13:13.168Z,2.57
2018-07-06T04:15:59.709Z,2.93
2018-07-06T04:18:46.539Z,3.60
2018-07-06T04:21:32.979Z,3.20
2018-07-06T04:24:19.380Z,3.10
2018-07-06T04:27:06.153Z,3.90
2018-07-06T04:29:52.779Z,3.67
2018-07-06T04:32:39.360Z,3.87
2018-07-06T04:35:25.802Z,4.00
2018-07-06T04:38:12.316Z,3.73
2018-07-06T04:40:59.015Z,3.90
2018-07-06T04:43:45.576Z,3.50
2018-07-06T04:46:32.213Z,4.03
2018-07-06T04:49:18.772Z,4.37
2018-07-06T04:52:05.264Z,4.60
2018-07-06T04:54:45.721Z,4.83
2018-07-06T04:57:32.325Z,4.00
2018-07-06T05:00:18.822Z,4.40
2018-07-06T05:03:05.246Z,4.40
2018-07-06T05:05:51.973Z,6.10
2018-07-06T05:08:38.537Z,4.30
2018-07-06T05:11:25.256Z,6.10
2018-07-06T05:14:11.752Z,5.60
2018-07-06T05:16:58.189Z,4.43
2018-07-06T05:19:44.574Z,4.77
2018-07-06T05:22:31.202Z,4.60
2018-07-06T05:25:17.916Z,5.90
2018-07-06T05:28:04.780Z,6.07
2018-07-06T05:30:51.518Z,6.30
2018-07-06T05:33:38.098Z,8.33
2018-07-06T05:36:24.918Z,6.67
2018-07-06T05:39:11.603Z,7.63
2018-07-06T05:41:58.287Z,8.63
2018-07-06T05:44:44.728Z,8.03
2018-07-06T05:47:31.218Z,7.87
2018-07-06T05:50:17.795Z,9.80
2018-07-06T05:53:04.425Z,10.30
2018-07-06T05:55:50.912Z,9.93
2018-07-06T05:58:37.656Z,13.17
2018-07-06T06:01:18.076Z,13.60
2018-07-06T06:04:04.647Z,13.50
2018-07-06T06:06:51.112Z,15.30
2018-07-06T06:09:26.277Z,16.97
2018-07-06T06:11:55.495Z,12.67
2018-07-06T06:14:26.172Z,13.67
2018-07-06T06:16:55.678Z,15.50
2018-07-06T06:19:25.197Z,15.27
2018-07-06T06:21:54.488Z,15.30
2018-07-06T06:24:23.743Z,15.77
2018-07-06T06:26:53.148Z,14.50
2018-07-06T06:29:22.535Z,15.90
2018-07-06T06:31:51.936Z,14.90
2018-07-06T06:34:21.256Z,16.93
2018-07-06T06:36:50.602Z,14.67
2018-07-06T06:39:19.889Z,15.00
2018-07-06T06:41:49.187Z,14.40
2018-07-06T06:44:18.721Z,14.90
2018-07-06T06:46:47.861Z,12.23
2018-07-06T06:49:16.995Z,15.83
2018-07-06T06:51:47.064Z,15.70
2018-07-06T06:54:16.598Z,15.07
2018-07-06T06:56:46.058Z,15.63
2018-07-06T06:59:16.106Z,16.13
2018-07-06T07:01:45.576Z,14.87
2018-07-06T07:04:14.953Z,15.17
2018-07-06T07:06:44.235Z,16.80
2018-07-06T07:09:13.507Z,14.87
2018-07-06T07:11:42.802Z,16.63
2018-07-06T07:14:12.144Z,15.60
2018-07-06T07:16:41.381Z,18.17
2018-07-06T07:19:10.666Z,15.23
2018-07-06T07:21:39.997Z,15.83
2018-07-06T07:24:09.284Z,17.70
2018-07-06T07:26:39.244Z,17.60
2018-07-06T07:29:10.030Z,17.93
2018-07-06T07:31:39.921Z,21.33
2018-07-06T07:34:09.290Z,19.10
2018-07-06T07:36:38.596Z,19.63
2018-07-06T07:39:07.884Z,20.17
2018-07-06T07:41:37.400Z,19.60
2018-07-06T07:44:07.980Z,18.50
2018-07-06T07:46:37.362Z,18.77
2018-07-06T07:49:07.474Z,19.30
2018-07-06T07:52:00.266Z,19.87
2018-07-06T07:54:33.696Z,19.70
2018-07-06T07:57:03.674Z,19.77
2018-07-06T07:59:34.276Z,21.03
2018-07-06T08:02:04.315Z,19.50
2018-07-06T08:04:33.653Z,18.30
2018-07-06T08:07:03.253Z,16.93
2018-07-06T08:09:33.267Z,18.10
2018-07-06T08:12:03.993Z,17.43
2018-07-06T08:14:33.597Z,17.37
2018-07-06T08:17:02.812Z,17.90
2018-07-06T08:19:32.125Z,18.37
2018-07-06T08:22:01.531Z,16.20
2018-07-06T08:24:30.820Z,18.23
2018-07-06T08:27:00.564Z,18.73
2018-07-06T08:29:29.837Z,16.90
2018-07-06T08:31:59.169Z,17.00
2018-07-06T08:34:39.603Z,19.23
2018-07-06T08:37:24.592Z,18.37
2018-07-06T08:39:54.126Z,18.93
2018-07-06T08:42:24.430Z,17.80
2018-07-06T08:44:54.076Z,18.50
2018-07-06T08:47:23.642Z,17.13
2018-07-06T08:49:53.436Z,16.00
2018-07-06T08:52:22.851Z,15.97
2018-07-06T08:54:52.792Z,16.50
2018-07-06T08:57:23.021Z,17.60
2018-07-06T08:59:52.937Z,18.47
2018-07-06T09:02:22.436Z,17.67
2018-07-06T09:04:52.815Z,16.97
2018-07-06T09:07:22.249Z,16.70
2018-07-06T09:09:52.142Z,16.30
2018-07-06T09:12:21.416Z,17.43
2018-07-06T09:14:50.695Z,15.10
2018-07-06T09:17:20.829Z,14.63
2018-07-06T09:19:57.722Z,16.00
2018-07-06T09:22:27.396Z,16.13
2018-07-06T09:24:58.099Z,15.50
2018-07-06T09:27:27.384Z,16.53
2018-07-06T09:29:56.830Z,15.43
2018-07-06T09:32:26.086Z,13.97
2018-07-06T09:34:55.377Z,14.43
2018-07-06T09:37:25.000Z,15.00
2018-07-06T09:39:54.559Z,15.40
2018-07-06T09:42:23.830Z,15.97
2018-07-06T09:44:53.088Z,13.23
2018-07-06T09:47:22.375Z,14.43
2018-07-06T09:49:51.716Z,14.33
2018-07-06T09:52:20.989Z,13.20
2018-07-06T09:54:50.213Z,12.30
2018-07-06T09:57:19.607Z,12.37
2018-07-06T09:59:48.909Z,16.10
2018-07-06T10:02:18.242Z,13.57
2018-07-06T10:04:47.457Z,12.93
2018-07-06T10:07:16.742Z,13.17
2018-07-06T10:09:46.089Z,12.17
2018-07-06T10:12:15.355Z,11.70
2018-07-06T10:14:44.620Z,13.13
2018-07-06T10:17:13.855Z,13.10
2018-07-06T10:19:43.152Z,11.73
2018-07-06T10:22:12.550Z,12.30
2018-07-06T10:24:41.770Z,10.63
2018-07-06T10:27:11.067Z,14.73
2018-07-06T10:29:51.517Z,14.40
2018-07-06T10:32:26.242Z,13.50
2018-07-06T10:34:55.966Z,14.53
2018-07-06T10:37:26.024Z,13.30
2018-07-06T10:39:55.480Z,15.77
2018-07-06T10:42:24.514Z,13.47
2018-07-06T10:44:54.060Z,12.97
2018-07-06T10:47:23.703Z,13.57
2018-07-06T10:49:53.090Z,14.47
2018-07-06T10:52:22.484Z,11.87
2018-07-06T10:54:51.735Z,12.17
2018-07-06T10:57:20.984Z,13.03
2018-07-06T10:59:50.271Z,12.43
2018-07-06T11:02:19.674Z,13.97
2018-07-06T11:04:49.088Z,14.63
2018-07-06T11:07:18.353Z,13.43
2018-07-06T11:09:47.654Z,12.70
2018-07-06T11:12:17.011Z,12.30
2018-07-06T11:14:46.271Z,12.63
2018-07-06T11:17:15.665Z,11.20
2018-07-06T11:19:44.934Z,11.23
2018-07-06T11:22:14.232Z,12.70
2018-07-06T11:24:43.273Z,13.97
2018-07-06T11:27:12.695Z,14.70
2018-07-06T11:29:42.062Z,14.30
2018-07-06T11:32:12.338Z,14.83
2018-07-06T11:34:41.676Z,14.93
2018-07-06T11:37:11.025Z,12.27
2018-07-06T11:39:40.554Z,11.00
2018-07-06T11:42:09.826Z,11.80
2018-07-06T11:44:39.023Z,12.53
2018-07-06T11:47:08.237Z,12.60
2018-07-06T11:49:37.528Z,10.87
2018-07-06T11:52:06.858Z,10.80
2018-07-06T11:54:37.456Z,10.73
2018-07-06T11:57:06.846Z,9.37
2018-07-06T11:59:35.774Z,11.80
2018-07-06T12:02:04.995Z,9.97
2018-07-06T12:04:34.378Z,9.27
2018-07-06T12:07:04.293Z,9.10
2018-07-06T12:09:33.624Z,7.37
2018-07-06T12:12:03.080Z,7.20
2018-07-06T12:14:32.391Z,7.60
2018-07-06T12:17:01.710Z,6.93
2018-07-06T12:19:31.080Z,5.93
2018-07-06T12:22:00.317Z,6.87
2018-07-06T12:24:29.539Z,7.23
2018-07-06T12:26:58.817Z,6.63
2018-07-06T12:29:27.739Z,6.17
2018-07-06T12:31:56.891Z,5.70
2018-07-06T12:34:26.171Z,7.20
2018-07-06T12:36:56.655Z,7.07
2018-07-06T12:39:25.935Z,6.93
2018-07-06T12:41:55.203Z,7.37
2018-07-06T12:44:24.474Z,7.20
2018-07-06T12:46:53.697Z,5.80
2018-07-06T12:49:23.027Z,5.97
2018-07-06T12:51:52.337Z,6.17
2018-07-06T12:54:21.646Z,6.80
2018-07-06T12:56:52.817Z,6.33
2018-07-06T12:59:23.597Z,7.20
2018-07-06T13:01:52.749Z,5.73
2018-07-06T13:04:22.203Z,6.57
2018-07-06T13:06:51.485Z,7.37
2018-07-06T13:09:20.752Z,4.50
2018-07-06T13:11:50.008Z,5.00
2018-07-06T13:14:19.268Z,5.57
2018-07-06T13:16:55.304Z,5.77
2018-07-06T13:19:24.519Z,4.50
2018-07-06T13:21:53.857Z,5.00
2018-07-06T13:24:23.171Z,4.53
2018-07-06T13:26:52.481Z,4.33
2018-07-06T13:29:21.865Z,4.40
2018-07-06T13:31:51.130Z,4.80
2018-07-06T13:34:20.379Z,4.30
2018-07-06T13:36:49.619Z,4.57
2018-07-06T13:39:19.006Z,4.23
2018-07-06T13:41:48.322Z,4.10
2018-07-06T13:44:17.498Z,4.57
2018-07-06T13:46:46.856Z,4.80
2018-07-06T13:49:16.638Z,4.70
2018-07-06T13:51:45.988Z,4.53
2018-07-06T13:54:15.653Z,4.10
2018-07-06T13:56:45.029Z,4.17
2018-07-06T13:59:14.402Z,4.67
2018-07-06T14:01:43.676Z,4.30
2018-07-06T14:04:13.765Z,3.40
2018-07-06T14:06:43.691Z,3.70
2018-07-06T14:09:12.958Z,4.00
2018-07-06T14:11:43.232Z,3.53
2018-07-06T14:14:12.600Z,3.80
2018-07-06T14:16:42.131Z,3.90
2018-07-06T14:19:11.685Z,4.73
2018-07-06T14:21:41.750Z,4.00
2018-07-06T14:24:11.069Z,3.70
2018-07-06T14:26:39.920Z,3.30
2018-07-06T14:29:09.148Z,3.40
2018-07-06T14:31:38.390Z,3.60
2018-07-06T14:34:07.679Z,3.50
2018-07-06T14:36:36.956Z,3.90
2018-07-06T14:39:07.315Z,4.90
2018-07-06T14:41:36.926Z,4.30
2018-07-06T14:44:06.612Z,3.77
2018-07-06T14:46:35.894Z,3.63
2018-07-06T14:49:05.691Z,4.23
2018-07-06T14:51:35.121Z,3.90
2018-07-06T14:54:04.528Z,4.70
2018-07-06T14:56:33.877Z,3.67
2018-07-06T14:59:04.132Z,3.27
2018-07-06T15:01:33.328Z,3.73
2018-07-06T15:04:03.221Z,4.37
2018-07-06T15:06:32.538Z,4.27
2018-07-06T15:09:01.725Z,3.90
2018-07-06T15:11:30.907Z,3.90
2018-07-06T15:14:00.123Z,3.47
2018-07-06T15:16:29.366Z,4.23
2018-07-06T15:18:58.610Z,3.90
2018-07-06T15:21:27.983Z,4.43
2018-07-06T15:23:57.237Z,4.20
2018-07-06T15:26:26.453Z,4.37
2018-07-06T15:28:55.757Z,3.90
2018-07-06T15:31:25.073Z,3.50
2018-07-06T15:33:54.332Z,4.33
2018-07-06T15:36:23.656Z,3.33
2018-07-06T15:38:53.089Z,4.37
2018-07-06T15:41:22.360Z,4.70
2018-07-06T15:43:51.688Z,3.20
2018-07-06T15:46:21.034Z,3.53
2018-07-06T15:48:50.307Z,3.33
2018-07-06T15:51:19.679Z,3.30
2018-07-06T15:53:49.105Z,3.80
2018-07-06T15:56:18.400Z,3.37
2018-07-06T15:58:47.835Z,3.17
2018-07-06T16:01:17.064Z,3.27
2018-07-06T16:03:46.309Z,3.77
2018-07-06T16:06:15.644Z,3.50
2018-07-06T16:08:59.647Z,3.77
2018-07-06T16:11:33.070Z,3.80
2018-07-06T16:14:02.496Z,3.40
2018-07-06T16:16:31.895Z,3.60
2018-07-06T16:19:01.559Z,3.47
2018-07-06T16:21:32.003Z,3.73
2018-07-06T16:24:01.546Z,3.77
2018-07-06T16:26:31.285Z,3.67
2018-07-06T16:29:01.118Z,4.27
2018-07-06T16:31:30.688Z,4.20
2018-07-06T16:34:00.444Z,4.20
2018-07-06T16:36:30.142Z,3.53
2018-07-06T16:39:00.977Z,3.70
2018-07-06T16:41:30.480Z,3.57
2018-07-06T16:44:00.121Z,4.40
2018-07-06T16:46:29.656Z,4.20
2018-07-06T16:48:59.217Z,3.73
2018-07-06T16:51:28.825Z,4.10
2018-07-06T16:53:58.423Z,3.80
2018-07-06T16:56:28.370Z,3.77
2018-07-06T16:58:58.637Z,4.40
2018-07-06T17:01:28.396Z,4.63
2018-07-06T17:03:57.825Z,4.07
2018-07-06T17:06:27.195Z,4.30
2018-07-06T17:09:08.981Z,4.73
2018-07-06T17:11:37.966Z,3.77
2018-07-06T17:14:07.312Z,4.00
2018-07-06T17:16:36.901Z,4.13
2018-07-06T17:19:06.507Z,4.50
2018-07-06T17:21:35.964Z,4.90
2018-07-06T17:24:05.411Z,4.43
2018-07-06T17:26:34.713Z,4.83
2018-07-06T17:29:04.269Z,4.30
2018-07-06T17:31:34.561Z,5.47
2018-07-06T17:34:08.360Z,3.80
2018-07-06T17:36:37.710Z,4.00
2018-07-06T17:39:08.190Z,5.03
2018-07-06T17:41:47.765Z,4.17
2018-07-06T17:44:18.296Z,5.00
2018-07-06T17:46:47.735Z,4.80
2018-07-06T17:49:17.253Z,4.70
2018-07-06T17:51:49.805Z,4.47
2018-07-06T17:54:20.123Z,3.57
2018-07-06T17:56:49.864Z,4.10
2018-07-06T17:59:21.417Z,5.33
2018-07-06T18:01:52.124Z,4.30
2018-07-06T18:04:23.047Z,3.87
2018-07-06T18:06:54.070Z,4.80
2018-07-06T18:09:24.052Z,4.50
2018-07-06T18:11:54.114Z,4.57
2018-07-06T18:14:23.711Z,4.17
2018-07-06T18:16:54.393Z,3.93
2018-07-06T18:19:23.943Z,5.10
2018-07-06T18:21:54.822Z,5.30
2018-07-06T18:24:25.340Z,4.40
2018-07-06T18:26:55.220Z,4.57
2018-07-06T18:29:25.423Z,4.43
2018-07-06T18:31:54.927Z,4.33
2018-07-06T18:34:24.824Z,4.43
2018-07-06T18:36:54.357Z,4.23
2018-07-06T18:39:28.740Z,4.13
2018-07-06T18:41:59.055Z,4.70
2018-07-06T18:44:28.515Z,3.97
2018-07-06T18:46:57.949Z,3.80
2018-07-06T18:49:27.410Z,4.97
2018-07-06T18:51:56.592Z,3.90
2018-07-06T18:54:29.573Z,4.30
2018-07-06T18:56:59.118Z,4.63
2018-07-06T18:59:28.591Z,4.57
2018-07-06T19:01:58.068Z,4.27
2018-07-06T19:04:27.540Z,4.00
2018-07-06T19:06:57.749Z,4.83
2018-07-06T19:09:27.234Z,5.00
2018-07-06T19:11:58.177Z,4.37
2018-07-06T19:14:27.728Z,3.73
2018-07-06T19:16:57.616Z,4.07
2018-07-06T19:19:33.152Z,3.67
2018-07-06T19:22:02.689Z,4.67
2018-07-06T19:24:37.611Z,4.40
2018-07-06T19:27:11.213Z,4.93
2018-07-06T19:29:40.714Z,5.03
2018-07-06T19:32:10.511Z,4.27
2018-07-06T19:34:39.840Z,4.00
2018-07-06T19:40:14.571Z,3.80
2018-07-06T19:42:43.783Z,3.60
2018-07-06T19:45:13.239Z,3.80
2018-07-06T19:47:42.546Z,7.60
2018-07-06T19:50:11.996Z,4.10
2018-07-06T19:52:41.509Z,3.90
2018-07-06T19:55:10.966Z,4.10
2018-07-06T19:57:40.243Z,4.80
2018-07-06T20:00:09.527Z,4.10
2018-07-06T20:02:38.758Z,4.20
2018-07-06T20:05:08.343Z,4.47
2018-07-06T20:07:37.216Z,4.90
2018-07-06T20:10:06.024Z,4.00
2018-07-06T20:12:35.137Z,4.63
2018-07-06T20:15:04.529Z,4.63
2018-07-06T20:17:33.883Z,5.05
2018-07-06T20:20:03.229Z,5.70
2018-07-06T20:22:32.600Z,4.93
2018-07-06T20:25:02.037Z,4.73
2018-07-06T20:27:31.364Z,5.60
2018-07-06T20:30:00.739Z,5.60
2018-07-06T20:32:29.988Z,5.07
2018-07-06T20:34:59.609Z,5.10
2018-07-06T20:37:28.997Z,4.90
2018-07-06T20:39:58.491Z,6.57
2018-07-06T20:42:27.726Z,4.60
2018-07-06T20:44:56.948Z,5.80
2018-07-06T20:47:26.179Z,4.80
2018-07-06T20:49:55.564Z,5.00
2018-07-06T20:52:25.433Z,4.77
2018-07-06T20:54:54.658Z,5.00
2018-07-06T20:57:23.869Z,4.50
2018-07-06T20:59:53.118Z,4.13
2018-07-06T21:02:22.107Z,4.10
2018-07-06T21:04:51.619Z,4.60
2018-07-06T21:07:21.439Z,4.27
2018-07-06T21:09:51.011Z,4.80
2018-07-06T21:12:20.270Z,4.23
2018-07-06T21:14:49.523Z,4.40
2018-07-06T21:17:18.434Z,4.13
2018-07-06T21:19:48.156Z,4.80
2018-07-06T21:22:17.127Z,3.80
2018-07-06T21:24:46.244Z,4.17
2018-07-06T21:27:15.809Z,3.57
2018-07-06T21:29:44.988Z,3.97
2018-07-06T21:32:14.707Z,3.97
2018-07-06T21:34:44.080Z,3.67
2018-07-06T21:37:13.619Z,3.63
2018-07-06T21:39:43.244Z,4.07
2018-07-06T21:42:12.556Z,4.20
2018-07-06T21:44:41.856Z,5.00
2018-07-06T21:47:11.194Z,3.53
2018-07-06T21:49:40.476Z,3.57
2018-07-06T21:52:09.753Z,3.80
2018-07-06T21:54:39.671Z,3.00
2018-07-06T21:57:08.944Z,3.57
2018-07-06T21:59:37.872Z,3.60
2018-07-06T22:02:11.256Z,3.70
2018-07-06T22:04:40.692Z,3.77
2018-07-06T22:07:10.147Z,4.47
2018-07-06T22:09:39.484Z,4.20
2018-07-06T22:12:08.815Z,5.37
2018-07-06T22:14:38.506Z,4.10
2018-07-06T22:17:07.816Z,3.93
2018-07-06T22:19:37.068Z,3.80
2018-07-06T22:22:07.537Z,3.50
2018-07-06T22:24:36.944Z,2.60
2018-07-06T22:27:06.362Z,2.70
2018-07-06T22:29:35.732Z,2.00
2018-07-06T22:32:04.775Z,1.80
2018-07-06T22:34:33.917Z,1.70
2018-07-06T22:37:03.284Z,1.93
2018-07-06T22:39:32.634Z,2.43
2018-07-06T22:42:01.874Z,2.83
2018-07-06T22:44:31.094Z,2.30
2018-07-06T22:47:00.325Z,2.73
2018-07-06T22:49:29.550Z,2.50
2018-07-06T22:51:58.485Z,2.30
2018-07-06T22:54:27.698Z,2.50
2018-07-06T22:56:56.908Z,2.70
2018-07-06T22:59:26.144Z,3.10
2018-07-06T23:01:55.511Z,2.90
2018-07-06T23:04:24.713Z,3.57
2018-07-06T23:06:53.888Z,3.03
2018-07-06T23:09:23.147Z,3.10
2018-07-06T23:11:52.473Z,3.00
2018-07-06T23:14:21.849Z,2.30
2018-07-06T23:16:51.163Z,3.00
2018-07-06T23:19:20.423Z,3.33
2018-07-06T23:21:49.635Z,2.73
2018-07-06T23:24:18.884Z,2.60
2018-07-06T23:26:47.790Z,2.60
2018-07-06T23:29:16.860Z,2.50
2018-07-06T23:31:46.057Z,2.90
2018-07-06T23:34:15.393Z,2.50
2018-07-06T23:36:44.630Z,3.63
2018-07-06T23:39:13.872Z,3.00
2018-07-06T23:41:43.124Z,2.37
2018-07-06T23:44:12.409Z,2.40
2018-07-06T23:46:41.718Z,2.97
2018-07-06T23:49:11.025Z,2.40
2018-07-06T23:51:40.224Z,3.43
2018-07-06T23:54:09.740Z,2.90
2018-07-06T23:56:39.058Z,3.13
2018-07-06T23:59:08.980Z,2.63
